createdAt,value
2018-02-06T06:24:45.762Z,16.00
2018-02-06T06:27:12.705Z,16.23
2018-02-06T06:29:40.184Z,18.40
2018-02-06T06:32:07.768Z,18.60
2018-02-06T06:34:41.020Z,18.77
2018-02-06T06:37:35.321Z,18.73
2018-02-06T06:40:21.403Z,17.80
2018-02-06T06:43:00.465Z,17.00
2018-02-06T06:48:54.894Z,19.98
2018-02-06T06:51:21.836Z,19.52
2018-02-06T06:53:49.538Z,19.40
2018-02-06T06:56:16.864Z,20.60
2018-02-06T06:58:43.837Z,17.80
2018-02-06T07:01:11.174Z,19.37
2018-02-06T07:03:42.240Z,17.90
2018-02-06T07:06:11.637Z,19.02
2018-02-06T07:08:41.140Z,19.73
2018-02-06T07:11:08.723Z,19.30
2018-02-06T07:13:35.699Z,17.60
2018-02-06T07:16:02.946Z,16.70
2018-02-06T07:18:29.956Z,18.92
2018-02-06T07:20:57.818Z,19.00
2018-02-06T07:23:26.937Z,18.40
2018-02-06T07:25:53.885Z,17.73
2018-02-06T07:28:20.797Z,17.65
2018-02-06T07:36:39.277Z,18.05
2018-02-06T07:39:08.034Z,20.67
2018-02-06T07:41:35.008Z,19.50
2018-02-06T07:44:02.963Z,18.40
2018-02-06T07:46:29.931Z,19.12
2018-02-06T07:51:32.030Z,17.55
2018-02-06T07:53:59.524Z,17.17
2018-02-06T07:56:27.175Z,18.37
2018-02-06T07:58:55.190Z,19.85
2018-02-06T08:01:22.350Z,19.40
2018-02-06T08:04:21.855Z,18.48
2018-02-06T08:06:59.641Z,19.42
2018-02-06T08:13:02.947Z,19.30
2018-02-06T08:21:33.689Z,21.08
2018-02-06T08:29:51.432Z,20.25
2018-02-06T08:32:26.293Z,19.30
2018-02-06T08:35:04.355Z,19.02
2018-02-06T08:37:32.652Z,18.85
2018-02-06T08:49:26.559Z,18.15
2018-02-06T09:00:56.567Z,19.02
2018-02-06T09:11:43.748Z,16.92
2018-02-06T09:14:14.352Z,18.98
2018-02-06T09:23:06.705Z,17.92
2018-02-06T09:25:58.621Z,17.55
2018-02-06T09:46:25.318Z,16.15
2018-02-06T09:49:17.372Z,17.30
2018-02-06T09:51:45.362Z,16.17
2018-02-06T09:54:14.445Z,15.30
2018-02-06T09:59:50.919Z,16.55
2018-02-06T10:05:06.346Z,16.92
2018-02-06T10:07:33.725Z,17.23
2018-02-06T10:10:02.812Z,17.80
2018-02-06T10:12:32.422Z,18.35
2018-02-06T10:15:00.611Z,17.00
2018-02-06T10:17:33.510Z,17.20
2018-02-06T10:20:01.306Z,16.08
2018-02-06T10:22:29.359Z,18.30
2018-02-06T10:24:56.374Z,18.02
2018-02-06T10:30:01.759Z,16.20
2018-02-06T10:32:31.102Z,17.50
2018-02-06T10:35:02.429Z,16.77
2018-02-06T10:37:48.042Z,15.50
2018-02-06T10:40:15.369Z,16.42
2018-02-06T10:42:42.317Z,16.55
2018-02-06T10:45:10.173Z,17.98
2018-02-06T10:47:37.100Z,17.12
2018-02-06T10:50:04.015Z,17.00
2018-02-06T10:52:31.646Z,17.35
2018-02-06T10:57:50.053Z,16.40
2018-02-06T20:09:10.751Z,23.60
2018-02-06T20:11:43.482Z,22.90
2018-02-06T20:14:15.337Z,22.90
2018-02-06T20:16:47.385Z,21.65
2018-02-06T20:21:50.791Z,23.83
2018-02-06T20:26:55.695Z,24.12
2018-02-06T20:29:24.872Z,24.65
2018-02-06T20:31:58.314Z,23.10
2018-02-06T20:37:06.686Z,23.73
2018-02-06T20:39:38.994Z,24.75
2018-02-06T20:42:08.495Z,26.67
2018-02-06T20:44:39.703Z,24.02
2018-02-06T20:47:11.786Z,23.27
2018-02-06T20:55:01.139Z,22.80
